sensor_id;sensor_type;location;lat;lon;timestamp;P1;P4;P2;P0;N10;N4;N25;N1;N05;TS
67004;SPS30;53920;51.094;5.902;2022-11-03T00:01:42;4.46;4.06;3.28;2.22;17.77;17.74;17.56;16.59;13.10;0.74
67004;SPS30;53920;51.094;5.902;2022-11-03T00:04:13;4.81;4.36;3.49;2.30;18.44;18.40;18.20;17.11;13.35;0.74
67004;SPS30;53920;51.094;5.902;2022-11-03T00:06:42;4.87;4.39;3.46;2.21;17.74;17.70;17.49;16.33;12.54;0.76
67004;SPS30;53920;51.094;5.902;2022-11-03T00:09:10;5.42;4.90;3.86;2.47;19.85;19.80;19.57;18.28;14.07;0.77
67004;SPS30;53920;51.094;5.902;2022-11-03T00:11:39;5.27;4.76;3.77;2.44;19.57;19.53;19.31;18.07;13.97;0.76
67004;SPS30;53920;51.094;5.902;2022-11-03T00:14:06;4.49;4.09;3.30;2.22;17.79;17.76;17.58;16.59;13.08;0.73
67004;SPS30;53920;51.094;5.902;2022-11-03T00:16:36;5.08;4.63;3.76;2.55;20.46;20.42;20.23;19.13;15.15;0.72
67004;SPS30;53920;51.094;5.902;2022-11-03T00:19:06;4.74;4.30;3.45;2.28;18.31;18.27;18.08;17.01;13.31;0.73
67004;SPS30;53920;51.094;5.902;2022-11-03T00:21:33;4.62;4.20;3.37;2.24;17.92;17.89;17.70;16.67;13.06;0.73
67004;SPS30;53920;51.094;5.902;2022-11-03T00:23:59;4.82;4.36;3.45;2.23;17.88;17.84;17.63;16.50;12.75;0.76
67004;SPS30;53920;51.094;5.902;2022-11-03T00:26:29;4.89;4.42;3.49;2.25;18.07;18.03;17.82;16.67;12.87;0.75
67004;SPS30;53920;51.094;5.902;2022-11-03T00:28:58;4.83;4.37;3.46;2.23;17.87;17.83;17.62;16.48;12.72;0.73
67004;SPS30;53920;51.094;5.902;2022-11-03T00:31:29;4.51;4.07;3.22;2.07;16.59;16.56;16.37;15.30;11.79;0.75
67004;SPS30;53920;51.094;5.902;2022-11-03T00:33:58;4.47;4.04;3.20;2.07;16.64;16.60;16.42;15.37;11.89;0.76
67004;SPS30;53920;51.094;5.902;2022-11-03T00:36:26;4.34;3.95;3.20;2.16;17.33;17.30;17.13;16.19;12.79;0.75
67004;SPS30;53920;51.094;5.902;2022-11-03T00:38:56;4.04;3.70;3.04;2.12;16.96;16.94;16.79;15.96;12.78;0.73
67004;SPS30;53920;51.094;5.902;2022-11-03T00:41:23;3.96;3.63;2.98;2.09;16.71;16.68;16.53;15.72;12.61;0.72
67004;SPS30;53920;51.094;5.902;2022-11-03T00:43:50;4.48;4.07;3.26;2.17;17.42;17.39;17.21;16.20;12.71;0.77
67004;SPS30;53920;51.094;5.902;2022-11-03T00:46:18;4.27;3.87;3.09;2.03;16.28;16.25;16.07;15.10;11.77;0.76
67004;SPS30;53920;51.094;5.902;2022-11-03T00:48:46;4.06;3.68;2.93;1.91;15.31;15.28;15.11;14.17;11.01;0.76
67004;SPS30;53920;51.094;5.902;2022-11-03T00:51:22;4.69;4.24;3.36;2.18;17.49;17.45;17.26;16.16;12.51;0.77
67004;SPS30;53920;51.094;5.902;2022-11-03T00:53:55;5.06;4.58;3.66;2.41;19.33;19.29;19.08;17.93;13.98;0.77
67004;SPS30;53920;51.094;5.902;2022-11-03T00:56:24;4.48;4.05;3.21;2.08;16.72;16.68;16.49;15.45;11.96;0.78
67004;SPS30;53920;51.094;5.902;2022-11-03T00:58:56;3.98;3.61;2.87;1.87;15.00;14.97;14.80;13.88;10.78;0.77
67004;SPS30;53920;51.094;5.902;2022-11-03T01:01:30;4.57;4.14;3.30;2.17;17.36;17.33;17.14;16.09;12.53;0.76
67004;SPS30;53920;51.094;5.902;2022-11-03T01:04:01;4.53;4.09;3.24;2.09;16.74;16.70;16.51;15.44;11.92;0.78
67004;SPS30;53920;51.094;5.902;2022-11-03T01:06:48;4.68;4.23;3.36;2.18;17.50;17.46;17.26;16.17;12.53;0.77
67004;SPS30;53920;51.094;5.902;2022-11-03T01:12:14;4.29;3.88;3.06;1.97;15.79;15.76;15.58;14.56;11.22;0.79
67004;SPS30;53920;51.094;5.902;2022-11-03T01:14:49;4.19;3.79;3.03;1.99;15.94;15.91;15.73;14.78;11.51;0.78
67004;SPS30;53920;51.094;5.902;2022-11-03T01:17:21;3.92;3.57;2.87;1.93;15.45;15.42;15.27;14.40;11.33;0.76
67004;SPS30;53920;51.094;5.902;2022-11-03T01:19:49;4.39;3.98;3.17;2.09;16.73;16.69;16.51;15.51;12.09;0.77
67004;SPS30;53920;51.094;5.902;2022-11-03T01:22:16;4.21;3.82;3.06;2.03;16.24;16.20;16.03;15.08;11.80;0.76
67004;SPS30;53920;51.094;5.902;2022-11-03T01:24:43;4.19;3.80;3.03;2.00;16.03;16.00;15.83;14.87;11.61;0.75
67004;SPS30;53920;51.094;5.902;2022-11-03T01:27:11;4.08;3.71;2.99;2.00;16.06;16.03;15.87;14.96;11.78;0.74
67004;SPS30;53920;51.094;5.902;2022-11-03T01:29:42;4.70;4.26;3.42;2.27;18.21;18.17;17.98;16.93;13.26;0.74
67004;SPS30;53920;51.094;5.902;2022-11-03T01:32:08;4.99;4.54;3.65;2.43;19.51;19.47;19.27;18.16;14.26;0.73
67004;SPS30;53920;51.094;5.902;2022-11-03T01:34:35;4.64;4.23;3.43;2.33;18.68;18.64;18.46;17.46;13.83;0.72
67004;SPS30;53920;51.094;5.902;2022-11-03T01:37:02;4.19;3.81;3.07;2.07;16.58;16.54;16.38;15.46;12.19;0.73
67004;SPS30;53920;51.094;5.902;2022-11-03T01:39:28;4.52;4.10;3.28;2.17;17.40;17.37;17.18;16.16;12.63;0.75
67004;SPS30;53920;51.094;5.902;2022-11-03T01:41:54;4.01;3.65;2.96;2.00;16.05;16.02;15.87;15.00;11.86;0.72
67004;SPS30;53920;51.094;5.902;2022-11-03T01:46:48;4.34;3.97;3.24;2.24;17.96;17.93;17.76;16.85;13.45;0.73
67004;SPS30;53920;51.094;5.902;2022-11-03T01:52:41;4.06;3.72;3.05;2.11;16.94;16.91;16.76;15.91;12.72;0.70
67004;SPS30;53920;51.094;5.902;2022-11-03T01:55:17;3.92;3.60;2.98;2.10;16.86;16.83;16.69;15.91;12.83;0.68
67004;SPS30;53920;51.094;5.902;2022-11-03T01:58:07;4.39;4.02;3.29;2.27;18.23;18.19;18.03;17.11;13.67;0.71
67004;SPS30;53920;51.094;5.902;2022-11-03T02:00:41;4.07;3.72;3.03;2.09;16.71;16.68;16.53;15.67;12.48;0.71
67004;SPS30;53920;51.094;5.902;2022-11-03T02:03:10;4.10;3.75;3.05;2.09;16.72;16.69;16.53;15.66;12.44;0.70
67004;SPS30;53920;51.094;5.902;2022-11-03T02:05:37;4.23;3.86;3.14;2.15;17.24;17.20;17.04;16.14;12.83;0.71
67004;SPS30;53920;51.094;5.902;2022-11-03T02:08:07;3.78;3.47;2.84;1.98;15.85;15.82;15.68;14.90;11.93;0.69
67004;SPS30;53920;51.094;5.902;2022-11-03T02:10:48;3.53;3.24;2.68;1.90;15.19;15.16;15.04;14.33;11.55;0.67
67004;SPS30;53920;51.094;5.902;2022-11-03T02:13:23;4.17;3.82;3.14;2.19;17.58;17.55;17.40;16.55;13.27;0.67
67004;SPS30;53920;51.094;5.902;2022-11-03T02:15:55;3.94;3.60;2.92;2.00;16.01;15.98;15.83;14.99;11.90;0.70
67004;SPS30;53920;51.094;5.902;2022-11-03T02:18:25;4.01;3.66;2.98;2.04;16.35;16.32;16.17;15.32;12.18;0.72
67004;SPS30;53920;51.094;5.902;2022-11-03T02:21:08;4.07;3.72;3.05;2.12;16.98;16.95;16.80;15.95;12.76;0.70
67004;SPS30;53920;51.094;5.902;2022-11-03T02:26:47;3.66;3.35;2.75;1.91;15.28;15.26;15.12;14.36;11.48;0.70
67004;SPS30;53920;51.094;5.902;2022-11-03T02:29:18;4.08;3.72;3.01;2.05;16.40;16.37;16.21;15.32;12.13;0.70
67004;SPS30;53920;51.094;5.902;2022-11-03T02:31:48;4.62;4.22;3.44;2.37;18.99;18.96;18.79;17.81;14.19;0.71
67004;SPS30;53920;51.094;5.902;2022-11-03T02:34:29;3.77;3.44;2.79;1.90;15.24;15.21;15.07;14.26;11.31;0.72
67004;SPS30;53920;51.094;5.902;2022-11-03T02:37:13;3.92;3.57;2.89;1.95;15.64;15.61;15.46;14.60;11.53;0.74
67004;SPS30;53920;51.094;5.902;2022-11-03T02:39:45;4.46;4.06;3.28;2.21;17.74;17.71;17.54;16.56;13.08;0.73
67004;SPS30;53920;51.094;5.902;2022-11-03T02:42:19;4.27;3.90;3.18;2.18;17.43;17.40;17.24;16.33;12.98;0.71
67004;SPS30;53920;51.094;5.902;2022-11-03T02:44:48;3.64;3.35;2.78;1.99;15.94;15.91;15.78;15.07;12.21;0.68
67004;SPS30;53920;51.094;5.902;2022-11-03T02:47:15;3.18;2.94;2.45;1.77;14.16;14.14;14.03;13.42;10.91;0.68
67004;SPS30;53920;51.094;5.902;2022-11-03T02:49:51;3.77;3.47;2.90;2.09;16.75;16.72;16.59;15.87;12.90;0.68
67004;SPS30;53920;51.094;5.902;2022-11-03T03:01:02;3.91;3.60;2.99;2.14;17.14;17.11;16.97;16.21;13.13;0.70
67004;SPS30;53920;51.094;5.902;2022-11-03T03:03:40;3.81;3.49;2.88;2.02;16.19;16.17;16.03;15.26;12.26;0.70
67004;SPS30;53920;51.094;5.902;2022-11-03T03:06:15;3.84;3.56;3.03;2.26;18.07;18.04;17.92;17.25;14.20;0.67
67004;SPS30;53920;51.094;5.902;2022-11-03T03:08:49;3.29;3.07;2.65;2.01;16.11;16.09;15.99;15.44;12.82;0.65
67004;SPS30;53920;51.094;5.902;2022-11-03T03:11:20;3.30;3.08;2.65;2.02;16.18;16.16;16.06;15.52;12.89;0.63
67004;SPS30;53920;51.094;5.902;2022-11-03T03:14:11;3.81;3.53;3.00;2.22;17.79;17.76;17.64;16.96;13.95;0.63
67004;SPS30;53920;51.094;5.902;2022-11-03T03:25:13;3.43;3.20;2.73;2.06;16.45;16.43;16.33;15.74;13.01;0.64
67004;SPS30;53920;51.094;5.902;2022-11-03T03:27:54;3.23;2.99;2.52;1.85;14.79;14.76;14.66;14.07;11.51;0.67
67004;SPS30;53920;51.094;5.902;2022-11-03T03:30:35;3.57;3.31;2.81;2.08;16.66;16.64;16.52;15.88;13.05;0.66
67004;SPS30;53920;51.094;5.902;2022-11-03T03:33:04;5.19;4.86;4.20;3.23;25.86;25.83;25.68;24.85;20.71;0.64
67004;SPS30;53920;51.094;5.902;2022-11-03T03:35:34;15.88;15.50;14.76;13.12;104.78;104.74;104.55;103.50;90.46;0.56
67004;SPS30;53920;51.094;5.902;2022-11-03T03:38:13;16.41;16.27;15.99;14.81;118.23;118.20;118.11;117.61;103.98;0.53
67004;SPS30;53920;51.094;5.902;2022-11-03T03:40:47;22.29;22.02;21.51;19.75;157.71;157.67;157.52;156.68;138.21;0.55
67004;SPS30;53920;51.094;5.902;2022-11-03T03:43:18;14.47;14.30;13.97;12.83;102.46;102.43;102.34;101.79;89.80;0.54
67004;SPS30;53920;51.094;5.902;2022-11-03T03:45:49;5.27;5.17;4.97;4.48;35.77;35.76;35.71;35.42;31.08;0.57
67004;SPS30;53920;51.094;5.902;2022-11-03T03:48:19;9.10;8.93;8.59;7.73;61.77;61.75;61.66;61.16;53.66;0.55
67004;SPS30;53920;51.094;5.902;2022-11-03T03:50:47;15.32;15.11;14.70;13.43;107.23;107.20;107.09;106.44;93.75;0.54
67004;SPS30;53920;51.094;5.902;2022-11-03T03:53:15;9.16;9.08;8.93;8.28;66.10;66.09;66.04;65.77;58.16;0.51
67004;SPS30;53920;51.094;5.902;2022-11-03T03:55:45;3.60;3.53;3.38;3.03;24.20;24.19;24.15;23.94;20.98;0.55
67004;SPS30;53920;51.094;5.902;2022-11-03T03:58:14;2.95;2.84;2.61;2.21;17.67;17.66;17.61;17.31;14.91;0.58
67004;SPS30;53920;51.094;5.902;2022-11-03T04:00:41;3.91;3.75;3.42;2.86;22.87;22.86;22.78;22.35;19.18;0.59
67004;SPS30;53920;51.094;5.902;2022-11-03T04:03:18;4.05;3.87;3.51;2.91;23.29;23.27;23.19;22.72;19.44;0.61
67004;SPS30;53920;51.094;5.902;2022-11-03T04:05:46;3.56;3.37;2.99;2.40;19.22;19.20;19.12;18.63;15.77;0.62
67004;SPS30;53920;51.094;5.902;2022-11-03T04:08:13;4.80;4.53;3.99;3.16;25.31;25.28;25.16;24.47;20.62;0.63
67004;SPS30;53920;51.094;5.902;2022-11-03T04:10:41;5.78;5.48;4.90;3.98;31.81;31.78;31.65;30.90;26.25;0.62
67004;SPS30;53920;51.094;5.902;2022-11-03T04:13:27;7.66;7.42;6.94;6.02;48.13;48.10;47.98;47.34;41.09;0.57
67004;SPS30;53920;51.094;5.902;2022-11-03T04:16:12;5.02;4.93;4.74;4.27;34.14;34.12;34.08;33.80;29.66;0.55
67004;SPS30;53920;51.094;5.902;2022-11-03T04:18:57;5.58;5.43;5.14;4.54;36.27;36.26;36.19;35.79;31.22;0.56
67004;SPS30;53920;51.094;5.902;2022-11-03T04:21:42;4.23;4.06;3.74;3.16;25.26;25.24;25.16;24.73;21.30;0.59
67004;SPS30;53920;51.094;5.902;2022-11-03T04:24:34;5.62;5.33;4.78;3.89;31.12;31.09;30.96;30.25;25.73;0.61
67004;SPS30;53920;51.094;5.902;2022-11-03T04:27:01;10.92;10.40;9.40;7.73;61.84;61.79;61.55;60.24;51.42;0.65
67004;SPS30;53920;51.094;5.902;2022-11-03T04:29:55;14.05;13.27;11.76;9.40;75.20;75.13;74.78;72.84;61.56;0.71
67004;SPS30;53920;51.094;5.902;2022-11-03T04:32:42;15.20;14.48;13.07;10.76;86.02;85.95;85.62;83.79;71.51;0.67
67004;SPS30;53920;51.094;5.902;2022-11-03T04:35:13;10.65;10.24;9.42;7.99;63.83;63.79;63.60;62.52;53.87;0.65
67004;SPS30;53920;51.094;5.902;2022-11-03T04:37:42;9.62;9.30;8.68;7.49;59.88;59.85;59.70;58.85;51.01;0.62
67004;SPS30;53920;51.094;5.902;2022-11-03T04:40:16;8.09;7.84;7.33;6.36;50.85;50.82;50.70;50.02;43.41;0.62
67004;SPS30;53920;51.094;5.902;2022-11-03T04:42:42;5.62;5.44;5.08;4.40;35.17;35.15;35.06;34.58;29.99;0.61
67004;SPS30;53920;51.094;5.902;2022-11-03T04:45:22;4.96;4.74;4.31;3.59;28.74;28.72;28.62;28.06;24.05;0.64
67004;SPS30;53920;51.094;5.902;2022-11-03T04:47:58;4.75;4.51;4.02;3.25;26.01;25.99;25.87;25.25;21.42;0.65
67004;SPS30;53920;51.094;5.902;2022-11-03T04:50:27;4.03;3.83;3.44;2.81;22.48;22.46;22.37;21.87;18.62;0.63
67004;SPS30;53920;51.094;5.902;2022-11-03T04:52:54;4.31;4.11;3.73;3.09;24.71;24.69;24.60;24.10;20.61;0.62
67004;SPS30;53920;51.094;5.902;2022-11-03T04:55:22;4.38;4.16;3.73;3.03;24.24;24.22;24.12;23.56;20.03;0.62
67004;SPS30;53920;51.094;5.902;2022-11-03T04:57:49;4.78;4.51;3.98;3.17;25.35;25.33;25.21;24.54;20.71;0.64
67004;SPS30;53920;51.094;5.902;2022-11-03T05:00:22;4.44;4.17;3.65;2.85;22.82;22.80;22.68;22.01;18.46;0.65
67004;SPS30;53920;51.094;5.902;2022-11-03T05:02:49;4.16;3.90;3.41;2.66;21.30;21.28;21.17;20.53;17.21;0.65
67004;SPS30;53920;51.094;5.902;2022-11-03T05:05:17;4.03;3.79;3.32;2.60;20.82;20.80;20.69;20.09;16.87;0.65
67004;SPS30;53920;51.094;5.902;2022-11-03T05:07:46;4.29;3.99;3.41;2.56;20.49;20.46;20.33;19.59;16.18;0.67
67004;SPS30;53920;51.094;5.902;2022-11-03T05:10:16;4.36;4.04;3.40;2.49;19.95;19.92;19.78;18.97;15.52;0.66
67004;SPS30;53920;51.094;5.902;2022-11-03T05:12:48;4.12;3.83;3.27;2.45;19.60;19.57;19.45;18.73;15.46;0.64
67004;SPS30;53920;51.094;5.902;2022-11-03T05:15:26;3.81;3.57;3.10;2.39;19.15;19.13;19.02;18.43;15.39;0.62
67004;SPS30;53920;51.094;5.902;2022-11-03T05:18:21;3.51;3.28;2.85;2.20;17.58;17.56;17.46;16.91;14.11;0.63
67004;SPS30;53920;51.094;5.902;2022-11-03T05:23:39;3.84;3.56;3.03;2.26;18.06;18.04;17.92;17.24;14.20;0.65
67004;SPS30;53920;51.094;5.902;2022-11-03T05:26:18;3.67;3.40;2.88;2.13;17.03;17.01;16.89;16.23;13.32;0.64
67004;SPS30;53920;51.094;5.902;2022-11-03T05:31:42;3.91;3.62;3.07;2.28;18.22;18.20;18.07;17.38;14.28;0.65
67004;SPS30;53920;51.094;5.902;2022-11-03T05:34:34;4.22;3.88;3.23;2.30;18.42;18.39;18.24;17.42;14.09;0.68
67004;SPS30;53920;51.094;5.902;2022-11-03T05:39:51;4.04;3.73;3.13;2.27;18.18;18.15;18.02;17.26;14.06;0.68
67004;SPS30;53920;51.094;5.902;2022-11-03T05:47:47;4.20;3.87;3.22;2.30;18.45;18.43;18.28;17.46;14.15;0.70
67004;SPS30;53920;51.094;5.902;2022-11-03T05:53:21;3.73;3.45;2.91;2.14;17.12;17.10;16.97;16.29;13.34;0.68
67004;SPS30;53920;51.094;5.902;2022-11-03T05:55:51;3.90;3.61;3.06;2.26;18.12;18.09;17.97;17.26;14.18;0.66
67004;SPS30;53920;51.094;5.902;2022-11-03T06:00:56;3.92;3.65;3.13;2.36;18.91;18.89;18.77;18.10;14.99;0.62
67004;SPS30;53920;51.094;5.902;2022-11-03T06:03:29;3.82;3.56;3.07;2.33;18.67;18.65;18.54;17.91;14.87;0.61
67004;SPS30;53920;51.094;5.902;2022-11-03T06:06:01;3.50;3.26;2.79;2.10;16.83;16.81;16.70;16.10;13.32;0.62
67004;SPS30;53920;51.094;5.902;2022-11-03T06:08:40;4.08;3.78;3.18;2.32;18.61;18.59;18.45;17.70;14.47;0.65
67004;SPS30;53920;51.094;5.902;2022-11-03T06:11:13;3.36;3.12;2.66;1.98;15.88;15.86;15.75;15.16;12.50;0.63
67004;SPS30;53920;51.094;5.902;2022-11-03T06:13:45;4.01;3.70;3.11;2.25;18.05;18.02;17.88;17.13;13.96;0.66
67004;SPS30;53920;51.094;5.902;2022-11-03T06:18:59;3.69;3.39;2.81;2.00;16.05;16.02;15.89;15.16;12.26;0.66
67004;SPS30;53920;51.094;5.902;2022-11-03T06:21:30;4.38;4.05;3.40;2.48;19.85;19.82;19.67;18.86;15.40;0.66
67004;SPS30;53920;51.094;5.902;2022-11-03T06:23:56;8.23;7.80;6.94;5.60;44.77;44.73;44.53;43.43;36.82;0.62
67004;SPS30;53920;51.094;5.902;2022-11-03T06:26:24;21.67;20.36;17.79;13.90;111.19;111.07;110.49;107.20;89.88;0.69
67004;SPS30;53920;51.094;5.902;2022-11-03T06:28:53;16.12;15.27;13.60;10.97;87.70;87.62;87.24;85.09;72.12;0.66
67004;SPS30;53920;51.094;5.902;2022-11-03T06:31:21;9.73;9.42;8.83;7.67;61.29;61.26;61.11;60.30;52.35;0.60
67004;SPS30;53920;51.094;5.902;2022-11-03T06:33:52;6.02;5.91;5.69;5.12;40.90;40.89;40.83;40.50;35.53;0.56
67004;SPS30;53920;51.094;5.902;2022-11-03T06:36:20;3.88;3.76;3.52;3.07;24.50;24.49;24.43;24.11;20.94;0.58
67004;SPS30;53920;51.094;5.902;2022-11-03T06:38:50;3.66;3.51;3.22;2.71;21.65;21.63;21.56;21.17;18.20;0.58
67004;SPS30;53920;51.094;5.902;2022-11-03T06:41:24;3.16;3.00;2.68;2.18;17.46;17.44;17.37;16.97;14.42;0.60
67004;SPS30;53920;51.094;5.902;2022-11-03T06:43:54;3.53;3.30;2.86;2.20;17.59;17.57;17.47;16.90;14.09;0.64
67004;SPS30;53920;51.094;5.902;2022-11-03T06:46:21;3.50;3.28;2.84;2.18;17.44;17.42;17.31;16.75;13.96;0.64
67004;SPS30;53920;51.094;5.902;2022-11-03T06:48:53;3.74;3.48;2.96;2.21;17.67;17.65;17.53;16.87;13.90;0.67
67004;SPS30;53920;51.094;5.902;2022-11-03T06:51:26;3.70;3.44;2.93;2.19;17.55;17.53;17.42;16.77;13.84;0.66
67004;SPS30;53920;51.094;5.902;2022-11-03T06:53:56;3.55;3.32;2.88;2.21;17.66;17.64;17.54;16.97;14.13;0.64
67004;SPS30;53920;51.094;5.902;2022-11-03T06:56:25;3.47;3.23;2.77;2.08;16.67;16.65;16.54;15.95;13.19;0.64
67004;SPS30;53920;51.094;5.902;2022-11-03T06:58:54;3.76;3.51;3.04;2.33;18.64;18.62;18.51;17.91;14.91;0.63
67004;SPS30;53920;51.094;5.902;2022-11-03T07:01:23;3.95;3.71;3.23;2.50;20.02;20.00;19.89;19.27;16.11;0.62
67004;SPS30;53920;51.094;5.902;2022-11-03T07:03:56;3.61;3.37;2.91;2.23;17.85;17.83;17.73;17.15;14.27;0.63
67004;SPS30;53920;51.094;5.902;2022-11-03T07:06:30;4.35;4.06;3.49;2.65;21.20;21.17;21.04;20.32;16.85;0.66
67004;SPS30;53920;51.094;5.902;2022-11-03T07:09:02;5.89;5.60;5.04;4.13;33.00;32.97;32.84;32.11;27.37;0.62
67004;SPS30;53920;51.094;5.902;2022-11-03T07:14:11;3.03;2.90;2.65;2.23;17.81;17.80;17.74;17.42;14.96;0.59
67004;SPS30;53920;51.094;5.902;2022-11-03T07:16:45;3.24;3.08;2.77;2.26;18.08;18.06;17.99;17.59;14.97;0.60
67004;SPS30;53920;51.094;5.902;2022-11-03T07:19:19;3.24;3.09;2.78;2.28;18.24;18.23;18.16;17.76;15.14;0.60
67004;SPS30;53920;51.094;5.902;2022-11-03T07:21:50;3.36;3.19;2.86;2.33;18.65;18.64;18.56;18.13;15.43;0.58
67004;SPS30;53920;51.094;5.902;2022-11-03T07:24:21;3.28;3.13;2.83;2.34;18.69;18.67;18.60;18.22;15.57;0.57
67004;SPS30;53920;51.094;5.902;2022-11-03T07:27:14;3.42;3.26;2.95;2.43;19.43;19.41;19.34;18.93;16.17;0.59
67004;SPS30;53920;51.094;5.902;2022-11-03T07:29:48;3.65;3.46;3.08;2.49;19.88;19.86;19.77;19.29;16.35;0.60
67004;SPS30;53920;51.094;5.902;2022-11-03T07:32:17;3.61;3.39;2.98;2.34;18.70;18.69;18.59;18.05;15.17;0.61
67004;SPS30;53920;51.094;5.902;2022-11-03T07:34:46;3.62;3.39;2.95;2.30;18.37;18.35;18.25;17.70;14.81;0.62
67004;SPS30;53920;51.094;5.902;2022-11-03T07:37:20;3.45;3.22;2.77;2.11;16.92;16.90;16.80;16.23;13.48;0.64
67004;SPS30;53920;51.094;5.902;2022-11-03T07:39:50;3.69;3.43;2.93;2.19;17.56;17.54;17.43;16.79;13.86;0.65
67004;SPS30;53920;51.094;5.902;2022-11-03T07:42:21;3.38;3.17;2.76;2.14;17.13;17.11;17.01;16.49;13.79;0.62
67004;SPS30;53920;51.094;5.902;2022-11-03T07:44:51;3.34;3.14;2.74;2.14;17.10;17.08;16.99;16.48;13.81;0.62
67004;SPS30;53920;51.094;5.902;2022-11-03T07:47:22;3.59;3.36;2.91;2.24;17.91;17.89;17.79;17.22;14.36;0.64
67004;SPS30;53920;51.094;5.902;2022-11-03T07:49:54;3.27;3.06;2.66;2.05;16.44;16.42;16.33;15.81;13.21;0.63
67004;SPS30;53920;51.094;5.902;2022-11-03T07:52:22;3.18;2.99;2.62;2.06;16.49;16.47;16.39;15.92;13.38;0.60
67004;SPS30;53920;51.094;5.902;2022-11-03T07:54:50;3.59;3.42;3.07;2.51;20.09;20.07;19.99;19.54;16.65;0.57
67004;SPS30;53920;51.094;5.902;2022-11-03T07:57:22;3.11;2.96;2.66;2.18;17.44;17.42;17.35;16.97;14.46;0.57
67004;SPS30;53920;51.094;5.902;2022-11-03T07:59:53;3.14;2.98;2.67;2.16;17.31;17.29;17.22;16.82;14.29;0.57
67004;SPS30;53920;51.094;5.902;2022-11-03T08:04:58;3.64;3.41;2.97;2.30;18.36;18.34;18.24;17.67;14.76;0.61
67004;SPS30;53920;51.094;5.902;2022-11-03T08:07:24;3.48;3.26;2.83;2.19;17.55;17.53;17.43;16.89;14.11;0.61
67004;SPS30;53920;51.094;5.902;2022-11-03T08:09:54;3.28;3.10;2.76;2.22;17.75;17.73;17.65;17.21;14.58;0.57
67004;SPS30;53920;51.094;5.902;2022-11-03T08:12:20;3.37;3.19;2.83;2.26;18.10;18.08;18.00;17.53;14.82;0.59
67004;SPS30;53920;51.094;5.902;2022-11-03T08:14:47;3.55;3.34;2.93;2.30;18.44;18.42;18.33;17.80;14.95;0.60
67004;SPS30;53920;51.094;5.902;2022-11-03T08:17:15;3.61;3.40;2.99;2.36;18.84;18.82;18.73;18.20;15.31;0.61
67004;SPS30;53920;51.094;5.902;2022-11-03T08:19:41;3.66;3.42;2.96;2.27;18.19;18.17;18.07;17.48;14.56;0.64
67004;SPS30;53920;51.094;5.902;2022-11-03T08:22:07;3.98;3.71;3.19;2.42;19.34;19.32;19.20;18.53;15.37;0.64
67004;SPS30;53920;51.094;5.902;2022-11-03T08:24:33;3.51;3.30;2.88;2.25;18.01;17.99;17.90;17.36;14.56;0.61
67004;SPS30;53920;51.094;5.902;2022-11-03T08:26:59;3.91;3.69;3.26;2.59;20.69;20.67;20.57;20.02;16.88;0.59
67004;SPS30;53920;51.094;5.902;2022-11-03T08:29:27;3.77;3.58;3.20;2.59;20.71;20.69;20.61;20.11;17.07;0.59
67004;SPS30;53920;51.094;5.902;2022-11-03T08:31:53;3.28;3.11;2.79;2.28;18.20;18.18;18.11;17.69;15.05;0.58
67004;SPS30;53920;51.094;5.902;2022-11-03T08:34:20;3.32;3.15;2.81;2.28;18.22;18.20;18.12;17.69;15.02;0.60
67004;SPS30;53920;51.094;5.902;2022-11-03T08:36:46;3.06;2.91;2.61;2.13;17.03;17.02;16.95;16.56;14.10;0.59
67004;SPS30;53920;51.094;5.902;2022-11-03T08:39:12;3.44;3.26;2.92;2.37;18.94;18.93;18.85;18.40;15.63;0.59
67004;SPS30;53920;51.094;5.902;2022-11-03T08:41:38;3.36;3.19;2.87;2.35;18.80;18.78;18.71;18.29;15.59;0.59
67004;SPS30;53920;51.094;5.902;2022-11-03T08:44:04;4.14;3.96;3.61;3.01;24.06;24.04;23.95;23.49;20.14;0.57
67004;SPS30;53920;51.094;5.902;2022-11-03T08:46:30;3.71;3.57;3.30;2.82;22.53;22.51;22.45;22.09;19.08;0.54
67004;SPS30;53920;51.094;5.902;2022-11-03T08:48:57;3.88;3.77;3.56;3.12;24.93;24.91;24.86;24.57;21.39;0.53
67004;SPS30;53920;51.094;5.902;2022-11-03T08:51:23;3.43;3.33;3.13;2.73;21.84;21.83;21.78;21.51;18.70;0.54
67004;SPS30;53920;51.094;5.902;2022-11-03T08:53:49;2.95;2.88;2.72;2.40;19.19;19.18;19.14;18.93;16.51;0.54
67004;SPS30;53920;51.094;5.902;2022-11-03T08:56:19;2.83;2.73;2.53;2.17;17.36;17.35;17.30;17.04;14.74;0.56
67004;SPS30;53920;51.094;5.902;2022-11-03T08:58:46;2.95;2.81;2.54;2.08;16.67;16.65;16.59;16.23;13.85;0.58
67004;SPS30;53920;51.094;5.902;2022-11-03T09:01:13;3.03;2.87;2.56;2.07;16.55;16.54;16.47;16.07;13.63;0.58
67004;SPS30;53920;51.094;5.902;2022-11-03T09:03:41;2.82;2.66;2.35;1.87;14.97;14.95;14.88;14.48;12.22;0.60
67004;SPS30;53920;51.094;5.902;2022-11-03T09:06:08;2.95;2.78;2.44;1.93;15.42;15.40;15.33;14.90;12.54;0.61
67004;SPS30;53920;51.094;5.902;2022-11-03T09:08:34;3.05;2.87;2.52;1.98;15.86;15.84;15.76;15.31;12.87;0.61
67004;SPS30;53920;51.094;5.902;2022-11-03T09:11:04;2.90;2.74;2.42;1.93;15.42;15.40;15.33;14.92;12.60;0.61
67004;SPS30;53920;51.094;5.902;2022-11-03T09:13:32;2.78;2.64;2.38;1.95;15.61;15.60;15.54;15.20;12.96;0.58
67004;SPS30;53920;51.094;5.902;2022-11-03T09:15:58;2.82;2.70;2.45;2.05;16.36;16.35;16.29;15.97;13.69;0.56
67004;SPS30;53920;51.094;5.902;2022-11-03T09:18:25;2.55;2.44;2.23;1.87;14.94;14.93;14.88;14.60;12.54;0.56
67004;SPS30;53920;51.094;5.902;2022-11-03T09:20:53;2.67;2.56;2.34;1.96;15.68;15.67;15.61;15.32;13.16;0.56
67004;SPS30;53920;51.094;5.902;2022-11-03T09:23:20;3.13;2.99;2.71;2.24;17.92;17.91;17.84;17.48;14.95;0.58
67004;SPS30;53920;51.094;5.902;2022-11-03T09:25:46;2.64;2.52;2.27;1.86;14.90;14.89;14.83;14.51;12.37;0.58
67004;SPS30;53920;51.094;5.902;2022-11-03T09:28:12;2.85;2.71;2.45;2.01;16.08;16.06;16.00;15.66;13.36;0.60
67004;SPS30;53920;51.094;5.902;2022-11-03T09:30:38;2.66;2.53;2.28;1.87;14.98;14.97;14.91;14.59;12.44;0.59
67004;SPS30;53920;51.094;5.902;2022-11-03T09:33:05;2.97;2.83;2.54;2.09;16.68;16.67;16.60;16.24;13.84;0.60
67004;SPS30;53920;51.094;5.902;2022-11-03T09:35:31;2.60;2.47;2.22;1.81;14.51;14.50;14.44;14.12;12.02;0.59
67004;SPS30;53920;51.094;5.902;2022-11-03T09:37:57;2.81;2.67;2.40;1.96;15.66;15.64;15.58;15.23;12.96;0.59
67004;SPS30;53920;51.094;5.902;2022-11-03T09:40:23;2.91;2.77;2.50;2.06;16.49;16.48;16.41;16.06;13.71;0.59
67004;SPS30;53920;51.094;5.902;2022-11-03T09:42:52;2.55;2.44;2.24;1.88;15.03;15.02;14.97;14.70;12.64;0.58
67004;SPS30;53920;51.094;5.902;2022-11-03T09:45:19;2.63;2.52;2.30;1.92;15.33;15.32;15.27;14.97;12.84;0.58
67004;SPS30;53920;51.094;5.902;2022-11-03T09:47:45;2.93;2.82;2.59;2.19;17.53;17.52;17.46;17.16;14.78;0.57
67004;SPS30;53920;51.094;5.902;2022-11-03T09:50:15;3.11;2.98;2.74;2.32;18.56;18.55;18.49;18.17;15.65;0.56
67004;SPS30;53920;51.094;5.902;2022-11-03T09:52:47;6.33;6.10;5.64;4.81;38.43;38.41;38.30;37.69;32.53;0.58
67004;SPS30;53920;51.094;5.902;2022-11-03T09:55:26;6.26;6.04;5.61;4.82;38.52;38.50;38.40;37.82;32.72;0.61
67004;SPS30;53920;51.094;5.902;2022-11-03T09:57:56;4.42;4.31;4.11;3.66;29.21;29.19;29.14;28.86;25.23;0.55
67004;SPS30;53920;51.094;5.902;2022-11-03T10:00:25;2.89;2.83;2.73;2.46;19.65;19.65;19.62;19.46;17.08;0.51
67004;SPS30;53920;51.094;5.902;2022-11-03T10:02:52;3.69;3.61;3.46;3.10;24.73;24.72;24.68;24.46;21.42;0.50
67004;SPS30;53920;51.094;5.902;2022-11-03T10:05:24;2.81;2.75;2.62;2.33;18.63;18.62;18.59;18.41;16.10;0.50
67004;SPS30;53920;51.094;5.902;2022-11-03T10:07:53;2.64;2.57;2.43;2.13;17.03;17.02;16.98;16.78;14.62;0.52
67004;SPS30;53920;51.094;5.902;2022-11-03T10:10:25;2.99;2.92;2.77;2.45;19.59;19.58;19.54;19.34;16.88;0.52
67004;SPS30;53920;51.094;5.902;2022-11-03T10:12:52;3.38;3.32;3.20;2.88;23.04;23.03;23.00;22.82;20.04;0.51
67004;SPS30;53920;51.094;5.902;2022-11-03T10:15:21;2.96;2.89;2.76;2.47;19.70;19.69;19.66;19.48;17.04;0.52
67004;SPS30;53920;51.094;5.902;2022-11-03T10:17:49;2.71;2.64;2.50;2.21;17.64;17.63;17.60;17.41;15.19;0.53
67004;SPS30;53920;51.094;5.902;2022-11-03T10:20:17;2.41;2.34;2.22;1.95;15.62;15.61;15.58;15.40;13.43;0.53
67004;SPS30;53920;51.094;5.902;2022-11-03T10:22:45;2.59;2.52;2.39;2.11;16.89;16.88;16.85;16.67;14.55;0.52